createdAt,value
2022-10-19T00:01:49.044Z,6.41
2022-10-19T00:04:34.638Z,6.35
2022-10-19T00:07:19.782Z,6.50
2022-10-19T00:10:05.485Z,6.58
2022-10-19T00:12:51.493Z,6.45
2022-10-19T00:15:41.003Z,6.31
2022-10-19T00:18:26.472Z,6.33
2022-10-19T00:21:14.651Z,6.13
2022-10-19T00:23:59.770Z,6.10
2022-10-19T00:26:44.687Z,6.19
2022-10-19T00:29:29.621Z,6.33
2022-10-19T00:32:14.952Z,6.36
2022-10-19T00:35:00.335Z,6.42
2022-10-19T00:37:45.769Z,6.59
2022-10-19T00:40:38.079Z,6.72
2022-10-19T00:43:26.507Z,6.78
2022-10-19T00:46:13.598Z,6.63
2022-10-19T00:49:13.402Z,6.46
2022-10-19T00:52:04.875Z,6.52
2022-10-19T00:54:51.759Z,6.53
2022-10-19T00:57:37.028Z,6.51
2022-10-19T01:00:22.254Z,6.43
2022-10-19T01:03:09.577Z,6.55
2022-10-19T01:05:55.170Z,6.72
2022-10-19T01:08:40.313Z,6.86
2022-10-19T01:11:46.520Z,6.95
2022-10-19T01:14:34.468Z,7.01
2022-10-19T01:18:02.047Z,6.87
2022-10-19T01:20:59.210Z,6.79
2022-10-19T01:24:16.981Z,6.79
2022-10-19T01:27:17.107Z,6.84
2022-10-19T01:30:08.641Z,6.75
2022-10-19T01:33:31.514Z,6.71
2022-10-19T01:36:30.294Z,6.70
2022-10-19T01:39:51.139Z,6.65
2022-10-19T01:42:52.211Z,6.66
2022-10-19T01:45:52.562Z,6.68
2022-10-19T01:48:40.896Z,6.75
2022-10-19T01:51:31.723Z,6.79
2022-10-19T01:54:19.463Z,6.80
2022-10-19T01:57:08.277Z,6.68
2022-10-19T01:59:54.883Z,6.71
2022-10-19T02:02:45.505Z,6.84
2022-10-19T02:05:32.750Z,6.85
2022-10-19T02:08:25.140Z,6.89
2022-10-19T02:11:10.384Z,6.83
2022-10-19T02:14:04.220Z,6.88
2022-10-19T02:16:54.982Z,6.80
2022-10-19T02:19:41.210Z,6.64
2022-10-19T02:22:26.452Z,6.71
2022-10-19T02:25:12.913Z,6.70
2022-10-19T02:27:59.829Z,6.57
2022-10-19T02:30:44.966Z,6.57
2022-10-19T02:33:31.028Z,6.51
2022-10-19T02:36:17.406Z,6.44
2022-10-19T02:39:03.278Z,6.58
2022-10-19T02:42:00.273Z,6.37
2022-10-19T02:45:13.049Z,6.34
2022-10-19T02:48:07.747Z,6.36
2022-10-19T02:50:52.742Z,6.29
2022-10-19T02:53:37.868Z,6.35
2022-10-19T02:56:22.903Z,6.34
2022-10-19T02:59:08.026Z,6.39
2022-10-19T03:01:53.089Z,6.29
2022-10-19T03:04:38.589Z,6.34
2022-10-19T03:07:24.815Z,6.25
2022-10-19T03:10:10.094Z,6.14
2022-10-19T03:12:57.769Z,6.30
2022-10-19T03:15:43.093Z,6.31
2022-10-19T03:18:28.026Z,6.26
2022-10-19T03:21:13.601Z,6.17
2022-10-19T03:24:00.305Z,6.24
2022-10-19T03:26:45.395Z,6.22
2022-10-19T03:29:30.489Z,6.15
2022-10-19T03:32:15.298Z,6.09
2022-10-19T03:35:00.245Z,6.26
2022-10-19T03:37:45.752Z,6.26
2022-10-19T03:40:30.577Z,5.94
2022-10-19T03:43:15.300Z,5.91
2022-10-19T03:46:00.375Z,5.78
2022-10-19T03:48:45.581Z,5.85
2022-10-19T03:51:32.251Z,5.50
2022-10-19T03:54:17.728Z,5.49
2022-10-19T03:57:02.603Z,5.34
2022-10-19T03:59:48.750Z,5.46
2022-10-19T04:02:34.295Z,5.57
2022-10-19T04:05:19.321Z,5.62
2022-10-19T04:08:05.049Z,5.79
2022-10-19T04:10:50.196Z,5.82
2022-10-19T04:13:35.636Z,5.93
2022-10-19T04:16:22.203Z,5.67
2022-10-19T04:19:08.138Z,5.77
2022-10-19T04:21:53.291Z,6.04
2022-10-19T04:24:38.167Z,6.12
2022-10-19T04:27:23.312Z,5.88
2022-10-19T04:30:08.963Z,5.89
2022-10-19T04:32:53.869Z,6.07
2022-10-19T04:35:38.852Z,6.12
2022-10-19T04:38:23.680Z,6.27
2022-10-19T04:41:12.529Z,6.42
2022-10-19T04:44:00.170Z,6.49
2022-10-19T04:46:45.536Z,6.58
2022-10-19T04:49:30.405Z,6.61
2022-10-19T04:52:15.461Z,6.48
2022-10-19T04:55:01.484Z,6.28
2022-10-19T04:57:46.798Z,6.37
2022-10-19T05:00:31.954Z,6.27
2022-10-19T05:03:17.608Z,6.36
2022-10-19T05:06:03.394Z,6.47
2022-10-19T05:08:49.137Z,6.46
2022-10-19T05:11:33.955Z,6.64
2022-10-19T05:14:19.022Z,6.49
2022-10-19T05:17:04.496Z,6.63
2022-10-19T05:19:49.423Z,6.59
2022-10-19T05:22:34.929Z,6.56
2022-10-19T05:25:20.373Z,6.60
2022-10-19T05:28:05.302Z,6.58
2022-10-19T05:30:50.182Z,6.68
2022-10-19T05:33:36.513Z,6.71
2022-10-19T05:36:29.663Z,6.78
2022-10-19T05:39:17.302Z,6.78
2022-10-19T05:42:02.662Z,6.78
2022-10-19T05:44:47.804Z,6.67
2022-10-19T05:47:34.399Z,6.71
2022-10-19T05:50:19.876Z,6.62
2022-10-19T05:53:05.288Z,6.63
2022-10-19T05:55:50.295Z,6.55
2022-10-19T05:58:35.791Z,6.64
2022-10-19T06:01:21.064Z,6.71
2022-10-19T06:04:06.396Z,6.76
2022-10-19T06:06:51.746Z,6.77
2022-10-19T06:09:37.191Z,6.73
2022-10-19T06:12:24.934Z,6.81
2022-10-19T06:15:10.437Z,6.92
2022-10-19T06:17:55.606Z,6.80
2022-10-19T06:20:42.025Z,6.93
2022-10-19T06:23:27.702Z,7.06
2022-10-19T06:26:14.273Z,7.25
2022-10-19T06:29:01.590Z,7.23
2022-10-19T06:31:48.017Z,7.36
2022-10-19T06:34:33.031Z,7.38
2022-10-19T06:37:18.428Z,7.44
2022-10-19T06:40:07.083Z,7.50
2022-10-19T06:42:55.118Z,7.60
2022-10-19T06:45:40.576Z,7.63
2022-10-19T06:48:25.735Z,7.61
2022-10-19T06:51:11.230Z,7.72
2022-10-19T06:53:57.478Z,7.70
2022-10-19T06:56:43.042Z,7.80
2022-10-19T06:59:28.001Z,7.85
2022-10-19T07:02:13.647Z,7.97
2022-10-19T07:05:01.134Z,8.02
2022-10-19T07:07:48.828Z,8.02
2022-10-19T07:10:34.060Z,8.19
2022-10-19T07:13:19.281Z,8.22
2022-10-19T07:16:16.068Z,8.30
2022-10-19T07:19:05.159Z,8.46
2022-10-19T07:21:51.480Z,8.42
2022-10-19T07:24:36.925Z,8.42
2022-10-19T07:27:21.939Z,8.57
2022-10-19T07:30:07.794Z,8.52
2022-10-19T07:32:53.370Z,8.63
2022-10-19T07:35:39.047Z,8.61
2022-10-19T07:38:24.594Z,8.80
2022-10-19T07:41:16.561Z,8.90
2022-10-19T07:44:02.045Z,8.88
2022-10-19T07:46:47.502Z,9.00
2022-10-19T07:49:32.636Z,9.19
2022-10-19T07:52:20.654Z,9.25
2022-10-19T07:55:06.041Z,9.33
2022-10-19T07:57:51.036Z,9.51
2022-10-19T08:00:36.275Z,9.55
2022-10-19T08:06:28.026Z,9.81
2022-10-19T08:09:27.997Z,10.09
2022-10-19T08:12:19.771Z,10.02
2022-10-19T08:15:05.368Z,10.03
2022-10-19T08:17:51.766Z,10.18
2022-10-19T08:20:40.178Z,10.17
2022-10-19T08:23:25.057Z,10.39
2022-10-19T08:26:10.560Z,10.49
2022-10-19T08:29:07.497Z,10.52
2022-10-19T08:31:52.595Z,10.63
2022-10-19T08:34:37.841Z,10.71
2022-10-19T08:37:39.925Z,10.94
2022-10-19T08:40:30.941Z,11.03
2022-10-19T08:43:28.235Z,11.00
2022-10-19T08:46:24.988Z,11.12
2022-10-19T08:49:15.802Z,11.14
2022-10-19T08:52:07.132Z,11.33
2022-10-19T08:54:56.331Z,11.52
2022-10-19T08:58:03.006Z,11.43
2022-10-19T09:01:02.445Z,11.49
2022-10-19T09:03:56.621Z,11.63
2022-10-19T09:07:19.351Z,11.70
2022-10-19T09:10:18.511Z,11.88
2022-10-19T09:13:14.408Z,11.89
2022-10-19T09:16:00.211Z,12.09
2022-10-19T09:18:46.280Z,12.23
2022-10-19T09:21:47.789Z,12.25
2022-10-19T09:24:43.510Z,12.32
2022-10-19T09:27:49.947Z,12.19
2022-10-19T09:30:37.883Z,12.33
2022-10-19T09:33:28.748Z,12.38
2022-10-19T09:36:22.459Z,12.49
2022-10-19T09:39:12.240Z,12.43
2022-10-19T09:42:22.583Z,12.45
2022-10-19T09:45:27.516Z,12.52
2022-10-19T09:48:20.543Z,12.54
2022-10-19T09:51:13.096Z,12.37
2022-10-19T09:53:58.554Z,12.45
2022-10-19T09:56:53.784Z,12.32
2022-10-19T09:59:39.079Z,12.48
2022-10-19T10:02:33.216Z,12.55
2022-10-19T10:05:19.955Z,12.43
2022-10-19T10:08:14.355Z,12.55
2022-10-19T10:11:08.687Z,12.37
2022-10-19T10:13:55.794Z,12.29
2022-10-19T10:16:40.758Z,12.42
2022-10-19T10:19:32.873Z,12.38
2022-10-19T10:22:34.807Z,12.55
2022-10-19T10:25:20.212Z,12.40
2022-10-19T10:28:20.803Z,12.52
2022-10-19T10:31:08.726Z,12.41
2022-10-19T10:34:06.350Z,12.44
2022-10-19T10:37:04.356Z,12.52
2022-10-19T10:39:57.690Z,12.60
2022-10-19T10:42:47.763Z,12.54
2022-10-19T10:45:54.554Z,12.51
2022-10-19T10:48:44.537Z,12.60
2022-10-19T10:51:38.658Z,12.70
2022-10-19T10:54:29.449Z,12.69
2022-10-19T10:57:15.517Z,12.75
2022-10-19T11:00:15.974Z,12.78
2022-10-19T11:05:39.275Z,12.96
2022-10-19T11:08:41.519Z,13.04
2022-10-19T11:11:35.441Z,12.80
2022-10-19T11:14:38.856Z,12.90
2022-10-19T11:17:29.591Z,12.88
2022-10-19T11:20:15.421Z,12.84
2022-10-19T11:23:17.386Z,13.08
2022-10-19T11:26:14.811Z,13.22
2022-10-19T11:29:18.303Z,13.22
2022-10-19T11:32:12.096Z,13.47
2022-10-19T11:35:31.054Z,13.25
2022-10-19T11:38:31.250Z,13.21
2022-10-19T11:41:38.520Z,13.11
2022-10-19T11:44:53.107Z,13.06
2022-10-19T11:48:05.870Z,13.22
2022-10-19T11:50:58.603Z,13.15
2022-10-19T11:53:57.320Z,13.33
2022-10-19T11:57:11.630Z,13.36
2022-10-19T12:00:27.301Z,13.42
2022-10-19T12:03:54.375Z,13.71
2022-10-19T12:06:47.277Z,14.05
2022-10-19T12:09:32.416Z,14.23
2022-10-19T12:12:37.945Z,14.24
2022-10-19T12:15:35.393Z,14.31
2022-10-19T12:18:44.673Z,14.23
2022-10-19T12:21:41.437Z,14.21
2022-10-19T12:24:29.773Z,14.05
2022-10-19T12:27:17.247Z,14.16
2022-10-19T12:30:13.600Z,13.99
2022-10-19T12:33:22.788Z,13.82
2022-10-19T12:36:35.885Z,13.88
2022-10-19T12:39:30.223Z,13.97
2022-10-19T12:42:38.643Z,14.36
2022-10-19T12:45:51.423Z,14.91
2022-10-19T12:48:36.642Z,15.48
2022-10-19T12:51:21.493Z,15.71
2022-10-19T12:54:09.900Z,15.52
2022-10-19T12:56:57.091Z,15.85
2022-10-19T12:59:42.270Z,15.43
2022-10-19T13:05:24.090Z,15.37
2022-10-19T13:08:27.263Z,16.09
2022-10-19T13:11:14.044Z,16.01
2022-10-19T13:14:08.587Z,16.23
2022-10-19T13:17:01.610Z,16.14
2022-10-19T13:19:48.448Z,16.10
2022-10-19T13:22:33.730Z,16.73
2022-10-19T13:25:31.481Z,16.58
2022-10-19T13:28:29.040Z,15.88
2022-10-19T13:31:30.258Z,16.42
2022-10-19T13:34:15.982Z,15.68
2022-10-19T13:37:03.075Z,15.52
2022-10-19T13:39:49.652Z,15.37
2022-10-19T13:42:35.010Z,15.14
2022-10-19T13:45:24.959Z,14.65
2022-10-19T13:48:23.904Z,14.55
2022-10-19T13:51:22.490Z,14.69
2022-10-19T13:54:23.066Z,14.50
2022-10-19T13:57:17.784Z,14.50
2022-10-19T14:00:12.899Z,14.33
2022-10-19T14:03:30.278Z,14.37
2022-10-19T14:06:42.902Z,14.42
2022-10-19T14:09:40.002Z,14.25
2022-10-19T14:12:29.307Z,14.33
2022-10-19T14:15:22.479Z,14.41
2022-10-19T14:18:23.561Z,14.41
2022-10-19T14:21:10.342Z,14.48
2022-10-19T14:23:55.529Z,14.01
2022-10-19T14:26:40.450Z,14.12
2022-10-19T14:29:25.916Z,14.01
2022-10-19T14:32:12.118Z,13.99
2022-10-19T14:37:50.479Z,14.09
2022-10-19T14:40:41.018Z,14.21
2022-10-19T14:43:34.038Z,14.32
2022-10-19T14:46:32.529Z,14.23
2022-10-19T14:49:17.794Z,14.23
2022-10-19T14:52:03.856Z,14.44
2022-10-19T14:54:53.666Z,14.81
2022-10-19T14:57:40.674Z,14.90
2022-10-19T15:03:30.065Z,14.17
2022-10-19T15:06:26.974Z,13.88
2022-10-19T15:09:47.850Z,13.90
2022-10-19T15:12:39.808Z,13.71
2022-10-19T15:15:27.921Z,13.73
2022-10-19T15:18:43.521Z,13.61
2022-10-19T15:21:21.822Z,13.59
2022-10-19T15:24:22.792Z,13.57
2022-10-19T15:27:10.306Z,13.58
2022-10-19T15:30:21.363Z,13.40
2022-10-19T15:33:16.523Z,13.26
2022-10-19T15:36:12.454Z,13.40
2022-10-19T15:39:11.468Z,13.19
2022-10-19T15:42:21.553Z,13.08
2022-10-19T15:45:36.276Z,13.06
2022-10-19T15:48:52.500Z,12.78
2022-10-19T15:51:44.306Z,12.81
2022-10-19T15:54:29.441Z,12.72
2022-10-19T15:57:37.927Z,12.57
2022-10-19T16:00:23.241Z,12.55
2022-10-19T16:03:08.419Z,12.52
2022-10-19T16:05:53.723Z,12.49
2022-10-19T16:08:38.929Z,12.37
2022-10-19T16:11:25.272Z,12.33
2022-10-19T16:14:10.237Z,12.35
2022-10-19T16:16:55.735Z,12.28
2022-10-19T16:19:42.076Z,12.19
2022-10-19T16:22:27.309Z,12.09
2022-10-19T16:25:13.016Z,12.09
2022-10-19T16:27:58.028Z,12.08
2022-10-19T16:30:43.012Z,11.93
2022-10-19T16:33:27.933Z,11.70
2022-10-19T16:36:13.065Z,11.79
2022-10-19T16:39:00.605Z,11.65
2022-10-19T16:41:45.702Z,11.70
2022-10-19T16:44:31.053Z,11.63
2022-10-19T16:47:15.990Z,11.49
2022-10-19T16:50:03.717Z,11.52
2022-10-19T16:53:04.367Z,11.49
2022-10-19T16:55:49.214Z,11.52
2022-10-19T16:58:35.391Z,11.44
2022-10-19T17:01:21.409Z,11.34
2022-10-19T17:04:06.926Z,11.21
2022-10-19T17:06:52.796Z,11.16
2022-10-19T17:09:42.740Z,11.12
2022-10-19T17:12:28.614Z,11.06
2022-10-19T17:15:47.357Z,11.07
2022-10-19T17:18:25.436Z,11.08
2022-10-19T17:21:17.403Z,10.94
2022-10-19T17:24:16.900Z,10.98
2022-10-19T17:27:05.492Z,10.89
2022-10-19T17:29:53.582Z,10.85
2022-10-19T17:32:40.370Z,10.70
2022-10-19T17:35:25.237Z,10.71
2022-10-19T17:38:11.422Z,10.68
2022-10-19T17:40:56.582Z,10.57
2022-10-19T17:43:44.071Z,10.62
2022-10-19T17:46:35.141Z,10.56
2022-10-19T17:49:20.637Z,10.49
2022-10-19T17:52:05.886Z,10.56
2022-10-19T17:55:11.266Z,10.54
2022-10-19T17:57:56.340Z,10.43
2022-10-19T18:00:41.593Z,10.41
2022-10-19T18:03:29.431Z,10.36
2022-10-19T18:06:25.890Z,10.24
2022-10-19T18:09:13.912Z,10.23
2022-10-19T18:12:04.733Z,10.29
2022-10-19T18:14:52.246Z,10.34
2022-10-19T18:17:37.527Z,10.28
2022-10-19T18:20:22.719Z,10.26
2022-10-19T18:23:07.494Z,10.24
2022-10-19T18:25:54.436Z,10.21
2022-10-19T18:28:43.314Z,10.14
2022-10-19T18:31:31.782Z,10.10
2022-10-19T18:34:19.322Z,10.02
2022-10-19T18:37:04.336Z,10.04
2022-10-19T18:39:50.401Z,9.89
2022-10-19T18:42:36.446Z,9.84
2022-10-19T18:45:22.339Z,9.86
2022-10-19T18:48:07.574Z,9.84
2022-10-19T18:50:57.679Z,9.91
2022-10-19T18:53:43.183Z,9.95
2022-10-19T18:56:28.270Z,9.89
2022-10-19T18:59:14.756Z,9.88
2022-10-19T19:01:59.970Z,9.86
2022-10-19T19:04:44.944Z,9.83
2022-10-19T19:07:29.939Z,9.86
2022-10-19T19:10:15.195Z,9.84
2022-10-19T19:13:00.817Z,9.76
2022-10-19T19:15:55.401Z,9.70
2022-10-19T19:18:40.419Z,9.65
2022-10-19T19:21:28.198Z,9.70
2022-10-19T19:24:18.866Z,9.65
2022-10-19T19:27:04.082Z,9.62
2022-10-19T19:29:56.607Z,9.61
2022-10-19T19:32:41.368Z,9.65
2022-10-19T19:35:26.242Z,9.67
2022-10-19T19:38:12.497Z,9.56
2022-10-19T19:40:57.724Z,9.63
2022-10-19T19:43:43.385Z,9.61
2022-10-19T19:46:28.789Z,9.62
2022-10-19T19:49:14.507Z,9.62
2022-10-19T19:51:59.336Z,9.55
2022-10-19T19:54:44.669Z,9.56
2022-10-19T19:57:29.655Z,9.55
2022-10-19T20:00:15.402Z,9.48
2022-10-19T20:03:00.395Z,9.30
2022-10-19T20:05:45.780Z,9.28
2022-10-19T20:08:31.310Z,9.34
2022-10-19T20:11:16.803Z,9.28
2022-10-19T20:14:02.200Z,9.26
2022-10-19T20:16:47.126Z,9.28
2022-10-19T20:19:32.117Z,9.24
2022-10-19T20:22:17.271Z,9.23
2022-10-19T20:25:03.369Z,9.26
2022-10-19T20:27:48.585Z,9.09
2022-10-19T20:30:33.939Z,9.10
2022-10-19T20:33:19.427Z,9.04
2022-10-19T20:36:06.527Z,9.03
2022-10-19T20:38:54.140Z,8.94
2022-10-19T20:41:39.332Z,8.92
2022-10-19T20:44:24.666Z,8.87
2022-10-19T20:47:10.584Z,8.87
2022-10-19T20:49:56.264Z,8.86
2022-10-19T20:52:41.492Z,8.86
2022-10-19T20:55:26.829Z,8.81
2022-10-19T20:58:12.329Z,8.75
2022-10-19T21:01:04.691Z,8.78
2022-10-19T21:03:53.500Z,8.66
2022-10-19T21:06:41.411Z,8.68
2022-10-19T21:09:26.890Z,8.69
2022-10-19T21:12:11.794Z,8.57
2022-10-19T21:14:56.787Z,8.59
2022-10-19T21:17:47.334Z,8.51
2022-10-19T21:20:33.491Z,8.56
2022-10-19T21:23:22.240Z,8.51
2022-10-19T21:26:09.468Z,8.44
2022-10-19T21:28:55.101Z,8.37
2022-10-19T21:31:48.607Z,8.36
2022-10-19T21:34:34.416Z,8.39
2022-10-19T21:37:21.753Z,8.40
2022-10-19T21:40:08.084Z,8.38
2022-10-19T21:42:53.268Z,8.47
2022-10-19T21:45:38.258Z,8.47
2022-10-19T21:48:23.486Z,8.44
2022-10-19T21:51:20.401Z,8.47
2022-10-19T21:54:07.336Z,8.47
2022-10-19T21:56:52.781Z,8.49
2022-10-19T21:59:37.999Z,8.46
2022-10-19T22:02:23.263Z,8.40
2022-10-19T22:05:08.419Z,8.44
2022-10-19T22:07:53.640Z,8.36
2022-10-19T22:10:39.040Z,8.39
2022-10-19T22:13:24.217Z,8.32
2022-10-19T22:16:12.972Z,8.22
2022-10-19T22:18:58.565Z,8.19
2022-10-19T22:21:43.941Z,8.17
2022-10-19T22:24:28.915Z,8.13
2022-10-19T22:27:13.803Z,8.04
2022-10-19T22:29:58.629Z,8.08
2022-10-19T22:32:43.505Z,8.04
2022-10-19T22:35:28.788Z,8.08
2022-10-19T22:38:13.732Z,8.07
2022-10-19T22:40:58.584Z,7.99
2022-10-19T22:43:43.614Z,7.92
2022-10-19T22:46:28.613Z,7.91
2022-10-19T22:49:13.552Z,7.90
2022-10-19T22:51:58.860Z,7.88
2022-10-19T22:54:43.850Z,7.93
2022-10-19T22:57:29.113Z,7.88
2022-10-19T23:00:14.308Z,7.84
2022-10-19T23:02:59.064Z,7.82
2022-10-19T23:05:43.889Z,7.82
2022-10-19T23:08:28.803Z,7.71
2022-10-19T23:11:15.326Z,7.73
2022-10-19T23:14:00.243Z,7.75
2022-10-19T23:16:45.157Z,7.73
2022-10-19T23:19:30.057Z,7.76
2022-10-19T23:22:15.019Z,7.71
2022-10-19T23:25:00.078Z,7.76
2022-10-19T23:27:45.051Z,7.79
2022-10-19T23:30:30.087Z,7.75
2022-10-19T23:33:15.096Z,7.76
2022-10-19T23:36:08.876Z,7.71
2022-10-19T23:38:55.683Z,7.74
2022-10-19T23:41:40.808Z,7.68
2022-10-19T23:44:25.603Z,7.62
2022-10-19T23:47:10.614Z,7.61
2022-10-19T23:49:55.511Z,7.66
2022-10-19T23:52:40.554Z,7.57
2022-10-19T23:55:25.734Z,7.54
2022-10-19T23:58:11.127Z,7.58
